Time;durP1;ratioP1;P1;durP2;ratioP2;P2;SDS_P1;SDS_P2;PMS_P1;PMS_P2;Temp;Humidity;BMP_temperature;BMP_pressure;BME280_temperature;BME280_humidity;BME280_pressure;Samples;Min_cycle;Max_cycle;Signal;HPM_P1;HPM_P2
2022/06/28 00:02:06;;;;;;;5.28;3.90;;;;;;;13.32;86.35;102008.06;4754899;30;20489;-82
2022/06/28 00:04:31;;;;;;;7.75;3.92;;;;;;;13.29;86.24;102008.09;4725675;30;20047;-82
2022/06/28 00:06:57;;;;;;;6.43;4.13;;;;;;;13.23;87.08;101997.53;4725003;30;20036;-82
2022/06/28 00:09:23;;;;;;;10.18;4.70;;;;;;;13.19;86.37;102006.47;4740278;30;20043;-82
2022/06/28 00:11:49;;;;;;;7.50;4.65;;;;;;;13.17;88.10;102010.03;4740132;30;20035;-82
2022/06/28 00:16:59;;;;;;;6.47;4.03;;;;;;;13.16;86.70;102002.97;4770725;30;20039;-82
2022/06/28 00:19:24;;;;;;;5.43;4.20;;;;;;;13.15;85.57;102002.06;4725745;30;20126;-82
2022/06/28 00:21:50;;;;;;;5.90;4.28;;;;;;;13.10;86.47;102011.88;4740068;30;20108;-82
2022/06/28 00:24:16;;;;;;;6.60;4.03;;;;;;;13.08;85.92;102001.28;4738035;30;20024;-82
2022/06/28 00:26:42;;;;;;;7.88;4.38;;;;;;;13.04;86.40;102014.66;4725333;30;20042;-82
2022/06/28 00:29:08;;;;;;;5.60;4.30;;;;;;;12.95;85.59;102012.09;4739931;30;20024;-82
2022/06/28 00:31:34;;;;;;;8.80;4.32;;;;;;;12.84;87.46;101996.31;4739617;30;20093;-82
2022/06/28 00:33:59;;;;;;;7.57;4.38;;;;;;;12.85;86.83;102012.22;4725156;30;20036;-82
2022/06/28 00:36:25;;;;;;;6.28;4.30;;;;;;;12.83;86.73;102018.44;4754709;30;20039;-82
2022/06/28 00:38:52;;;;;;;8.07;4.72;;;;;;;12.85;87.38;102011.34;4754481;30;20075;-82
2022/06/28 00:41:19;;;;;;;7.72;4.53;;;;;;;12.89;87.81;102015.72;4739681;30;20051;-82
2022/06/28 00:43:45;;;;;;;6.32;4.93;;;;;;;12.89;88.21;102018.38;4739674;30;20373;-82
2022/06/28 00:46:11;;;;;;;6.03;4.65;;;;;;;12.84;87.80;102015.78;4725138;30;20032;-82
2022/06/28 00:48:36;;;;;;;7.05;4.85;;;;;;;12.82;89.04;102017.56;4739635;30;20047;-82
2022/06/28 00:51:02;;;;;;;7.10;4.47;;;;;;;12.83;87.54;102019.34;4738531;30;20044;-82
2022/06/28 00:53:27;;;;;;;12.25;5.22;;;;;;;12.87;88.51;102025.50;4725613;30;20114;-82
2022/06/28 00:55:53;;;;;;;12.93;5.43;;;;;;;12.88;89.40;102017.50;4724766;30;20058;-82
2022/06/28 00:58:19;;;;;;;10.60;5.18;;;;;;;12.83;88.75;102011.38;4754132;30;20112;-82
2022/06/28 01:00:47;;;;;;;6.80;4.78;;;;;;;12.88;88.60;102021.94;4724832;30;20361;-82
2022/06/28 01:03:18;;;;;;;8.77;5.47;;;;;;;12.85;88.80;102025.50;4748953;30;20068;-82
2022/06/28 01:05:47;;;;;;;10.75;5.22;;;;;;;12.82;89.38;102028.22;4733406;30;20040;-82
2022/06/28 01:08:14;;;;;;;8.75;4.50;;;;;;;12.78;87.95;102026.47;4738006;30;20035;-82
2022/06/28 01:10:40;;;;;;;12.68;5.45;;;;;;;12.71;89.21;102019.50;4736621;30;20044;-88
2022/06/28 01:13:07;;;;;;;6.40;4.43;;;;;;;12.70;87.97;102021.25;4719860;30;20489;-87
2022/06/28 01:15:36;;;;;;;11.50;5.03;;;;;;;12.65;88.72;102028.41;4725192;30;20063;-87
2022/06/28 01:18:04;;;;;;;18.92;5.00;;;;;;;12.66;88.82;102029.28;4762619;30;20373;-83
2022/06/28 01:20:45;;;;;;;10.85;5.20;;;;;;;12.61;89.11;102016.06;4748645;30;20078;-82
2022/06/28 01:23:34;;;;;;;7.90;5.17;;;;;;;12.63;89.34;102027.53;4770978;30;20130;-82
2022/06/28 01:26:35;;;;;;;8.48;5.30;;;;;;;12.55;89.43;102020.56;4744633;30;20044;-82
2022/06/28 01:29:01;;;;;;;8.02;5.15;;;;;;;12.53;89.06;102020.56;4745138;30;20046;-83
2022/06/28 01:31:36;;;;;;;7.15;4.93;;;;;;;12.47;88.62;102031.28;4759775;30;20179;-83
2022/06/28 01:34:03;;;;;;;8.93;4.90;;;;;;;12.34;88.42;102024.31;4733048;30;20481;-83
2022/06/28 01:36:29;;;;;;;9.50;5.05;;;;;;;12.27;89.08;102027.03;4716235;30;20067;-83
2022/06/28 01:38:57;;;;;;;11.48;5.10;;;;;;;12.27;89.03;102045.63;4745285;30;20070;-83
2022/06/28 01:41:32;;;;;;;11.13;5.30;;;;;;;12.22;88.26;102039.50;4745501;30;20035;-83
2022/06/28 01:44:06;;;;;;;7.88;5.20;;;;;;;12.19;89.92;102038.63;4746284;30;20531;-82
2022/06/28 01:46:37;;;;;;;12.38;5.65;;;;;;;12.20;90.78;102035.97;4745073;30;20035;-82
2022/06/28 01:49:08;;;;;;;8.23;5.57;;;;;;;12.17;88.67;102041.31;4745653;30;20036;-82
2022/06/28 01:51:35;;;;;;;8.50;5.43;;;;;;;12.14;88.74;102048.41;4759404;30;20066;-83
2022/06/28 01:54:01;;;;;;;9.00;6.03;;;;;;;12.08;90.69;102036.06;4744763;30;20529;-82
2022/06/28 01:56:35;;;;;;;6.35;5.03;;;;;;;12.00;89.59;102033.50;4759517;30;20078;-83
2022/06/28 01:59:23;;;;;;;7.75;5.05;;;;;;;11.96;89.21;102042.38;4747671;30;20104;-83
2022/06/28 02:02:00;;;;;;;12.38;5.85;;;;;;;11.98;89.94;102048.56;4732692;30;20445;-83
2022/06/28 02:04:32;;;;;;;7.70;5.35;;;;;;;11.92;90.30;102038.00;4759390;30;20086;-83
2022/06/28 02:07:02;;;;;;;8.57;5.23;;;;;;;11.87;89.33;102046.88;4742127;30;20115;-83
2022/06/28 02:09:34;;;;;;;8.52;5.38;;;;;;;11.90;89.72;102049.53;4731774;30;20066;-83
2022/06/28 02:11:59;;;;;;;10.80;5.47;;;;;;;11.79;88.75;102047.81;4730091;30;20067;-83
2022/06/28 02:14:29;;;;;;;7.45;5.07;;;;;;;11.74;89.73;102052.25;4759280;30;20408;-83
2022/06/28 02:16:58;;;;;;;7.75;4.93;;;;;;;11.62;89.60;102039.97;4742517;30;20052;-83
2022/06/28 02:19:25;;;;;;;9.10;5.35;;;;;;;11.60;88.68;102051.47;4744858;30;20036;-83
2022/06/28 02:21:52;;;;;;;5.57;4.93;;;;;;;11.56;89.94;102055.91;4730597;30;20040;-83
2022/06/28 02:24:19;;;;;;;12.50;5.18;;;;;;;11.52;89.56;102051.53;4741648;30;20035;-82
2022/06/28 02:26:44;;;;;;;12.23;5.20;;;;;;;11.46;89.68;102063.94;4740174;30;20140;-83
2022/06/28 02:29:10;;;;;;;8.25;5.20;;;;;;;11.45;90.86;102070.13;4704367;30;20127;-83
2022/06/28 02:31:39;;;;;;;6.53;5.32;;;;;;;11.43;91.29;102071.94;4738529;30;20110;-83
2022/06/28 02:34:05;;;;;;;7.60;6.00;;;;;;;11.38;91.28;102070.16;4713661;30;20059;-83
2022/06/28 02:42:03;;;;;;;7.72;5.68;;;;;;;11.37;91.79;102084.34;4744189;30;20036;-83
2022/06/28 02:44:28;;;;;;;8.13;5.57;;;;;;;11.37;91.67;102084.34;4715395;30;20044;-82
2022/06/28 02:46:54;;;;;;;9.00;5.32;;;;;;;11.36;91.20;102089.63;4741422;30;20044;-83
2022/06/28 02:49:19;;;;;;;8.48;6.13;;;;;;;11.32;91.98;102087.88;4756272;30;20032;-83
2022/06/28 02:51:45;;;;;;;9.55;5.97;;;;;;;11.32;92.29;102093.19;4756062;30;20126;-83
2022/06/28 02:54:11;;;;;;;9.23;5.60;;;;;;;11.31;92.03;102094.09;4712365;30;20123;-82
2022/06/28 02:56:37;;;;;;;10.07;5.53;;;;;;;11.26;91.82;102102.06;4726805;30;20048;-82
2022/06/28 02:59:03;;;;;;;12.77;5.43;;;;;;;11.19;91.46;102106.50;4726667;30;20054;-83
2022/06/28 03:01:29;;;;;;;7.47;6.30;;;;;;;11.21;92.50;102113.56;4728257;30;20401;-82
2022/06/28 03:03:54;;;;;;;12.23;5.60;;;;;;;11.13;91.34;102103.00;4752328;30;20569;-83
2022/06/28 03:06:20;;;;;;;10.45;5.50;;;;;;;11.08;92.64;102097.72;4741019;30;20047;-82
2022/06/28 03:08:46;;;;;;;9.43;5.75;;;;;;;11.09;92.88;102104.78;4726645;30;20134;-82
2022/06/28 03:11:12;;;;;;;10.30;5.55;;;;;;;11.04;92.57;102106.56;4755892;30;20051;-82
2022/06/28 03:13:37;;;;;;;8.32;5.68;;;;;;;11.02;92.93;102110.09;4755822;30;20044;-82
2022/06/28 03:16:03;;;;;;;8.63;5.63;;;;;;;11.02;92.72;102120.72;4740941;30;20123;-82
2022/06/28 03:18:28;;;;;;;13.48;6.57;;;;;;;10.97;93.61;102111.00;4712281;30;20043;-82
2022/06/28 03:20:54;;;;;;;8.65;6.05;;;;;;;10.98;93.80;102117.19;4725741;30;20093;-82
2022/06/28 03:23:20;;;;;;;7.18;5.50;;;;;;;11.03;93.23;102131.31;4740934;30;20082;-82
2022/06/28 03:25:46;;;;;;;7.93;5.85;;;;;;;11.04;93.62;102121.59;4741170;30;20059;-82
2022/06/28 03:28:11;;;;;;;10.30;5.80;;;;;;;11.03;93.37;102122.47;4741177;30;20083;-82
2022/06/28 03:30:37;;;;;;;7.22;4.97;;;;;;;11.03;93.25;102123.38;4740951;30;20040;-82
2022/06/28 03:33:03;;;;;;;7.72;5.20;;;;;;;11.01;93.13;102116.31;4755461;30;20044;-82
2022/06/28 03:35:33;;;;;;;9.23;5.53;;;;;;;11.07;93.62;102134.81;4737835;30;20580;-82
2022/06/28 03:37:58;;;;;;;8.77;5.22;;;;;;;11.03;93.51;102138.38;4734772;30;20165;-82
2022/06/28 03:40:44;;;;;;;7.38;5.13;;;;;;;11.03;93.75;102128.66;4746027;30;20040;-82
2022/06/28 03:43:10;;;;;;;8.77;5.88;;;;;;;11.10;93.44;102133.06;4712106;30;20047;-82
2022/06/28 03:45:35;;;;;;;9.82;5.78;;;;;;;11.12;93.56;102133.03;4711760;30;20062;-82
2022/06/28 03:48:19;;;;;;;7.07;5.13;;;;;;;11.14;92.88;102133.91;4745681;30;20098;-82
2022/06/28 03:51:11;;;;;;;9.75;5.53;;;;;;;11.12;92.73;102133.91;4735510;30;20504;-82
2022/06/28 03:53:55;;;;;;;9.63;5.45;;;;;;;11.10;92.69;102142.75;4742873;30;20126;-82
2022/06/28 03:56:28;;;;;;;6.80;5.13;;;;;;;11.09;92.73;102138.38;4741326;30;20138;-82
2022/06/28 03:58:54;;;;;;;6.85;5.15;;;;;;;11.05;93.49;102128.63;4755008;30;20118;-82
2022/06/28 04:01:20;;;;;;;9.38;6.32;;;;;;;11.08;93.44;102131.31;4708767;30;20093;-82
2022/06/28 04:03:46;;;;;;;7.32;5.25;;;;;;;11.09;93.72;102133.06;4725925;30;20047;-82
2022/06/28 04:06:12;;;;;;;7.82;5.25;;;;;;;11.14;94.23;102128.63;4711675;30;20022;-83
2022/06/28 04:08:38;;;;;;;7.30;5.05;;;;;;;11.12;92.96;102139.22;4725821;30;20443;-82
2022/06/28 04:11:16;;;;;;;9.93;4.78;;;;;;;11.14;93.73;102148.06;4725998;30;20122;-82
2022/06/28 04:13:44;;;;;;;10.10;5.20;;;;;;;11.18;93.80;102154.25;4731934;30;20064;-82
2022/06/28 04:16:10;;;;;;;10.85;4.45;;;;;;;11.16;93.27;102146.28;4739470;30;20054;-82
2022/06/28 04:18:36;;;;;;;7.25;5.00;;;;;;;11.17;93.63;102144.50;4739729;30;20071;-81
2022/06/28 04:21:03;;;;;;;12.40;4.95;;;;;;;11.19;93.04;102148.91;4754254;30;20036;-81
2022/06/28 04:23:29;;;;;;;9.38;5.32;;;;;;;11.25;92.46;102147.13;4739652;30;20035;-82
2022/06/28 04:25:55;;;;;;;7.80;5.35;;;;;;;11.27;93.37;102150.66;4725147;30;20039;-81
2022/06/28 04:28:30;;;;;;;9.88;4.85;;;;;;;11.30;93.04;102155.94;4740382;30;20489;-82
2022/06/28 04:31:04;;;;;;;11.40;4.90;;;;;;;11.30;92.79;102145.34;4740344;30;20112;-82
2022/06/28 04:33:30;;;;;;;9.45;4.38;;;;;;;11.32;93.19;102148.88;4739468;30;20130;-82
2022/06/28 04:35:56;;;;;;;13.23;4.55;;;;;;;11.28;93.23;102147.13;4735485;30;20032;-81
2022/06/28 04:38:23;;;;;;;9.88;4.32;;;;;;;11.34;92.62;102150.63;4720371;30;20068;-82
2022/06/28 04:41:07;;;;;;;9.68;4.57;;;;;;;11.35;93.12;102146.19;4738642;30;20074;-82
2022/06/28 04:43:56;;;;;;;10.98;4.75;;;;;;;11.39;92.12;102150.63;4748760;30;20044;-81
2022/06/28 04:46:29;;;;;;;10.05;4.60;;;;;;;11.44;92.55;102146.16;4740139;30;20507;-81
2022/06/28 04:48:58;;;;;;;9.35;4.60;;;;;;;11.46;92.27;102151.47;4736415;30;20064;-81
2022/06/28 04:51:33;;;;;;;10.48;4.40;;;;;;;11.52;92.27;102155.00;4726442;30;20039;-82
2022/06/28 04:53:59;;;;;;;9.48;3.90;;;;;;;11.48;92.04;102139.09;4724562;30;20032;-82
2022/06/28 04:56:24;;;;;;;8.35;4.00;;;;;;;11.60;92.19;102158.47;4736083;30;20036;-82
2022/06/28 04:58:51;;;;;;;8.00;4.18;;;;;;;11.67;92.04;102161.09;4724300;30;20075;-81
2022/06/28 05:01:17;;;;;;;7.95;3.90;;;;;;;11.71;92.44;102161.06;4753892;30;20089;-81
2022/06/28 05:03:45;;;;;;;12.68;4.15;;;;;;;11.77;91.72;102158.41;4753722;30;20055;-81
2022/06/28 05:06:31;;;;;;;10.20;4.18;;;;;;;11.85;91.91;102153.03;4738959;30;20097;-81
2022/06/28 05:08:59;;;;;;;10.48;4.57;;;;;;;11.91;91.69;102152.13;4753870;30;20048;-82
2022/06/28 05:11:25;;;;;;;12.32;4.28;;;;;;;12.00;91.57;102147.66;4724904;30;20036;-81
2022/06/28 05:14:06;;;;;;;11.38;4.25;;;;;;;12.04;91.18;102152.06;4715678;30;20043;-82
2022/06/28 05:16:33;;;;;;;8.07;3.97;;;;;;;12.17;90.70;102160.81;4724726;30;20145;-82
2022/06/28 05:18:58;;;;;;;14.48;4.45;;;;;;;12.24;89.94;102156.34;4737007;30;20131;-81
2022/06/28 05:21:31;;;;;;;11.10;4.10;;;;;;;12.29;88.99;102151.88;4731509;30;20493;-81
2022/06/28 05:23:57;;;;;;;13.88;3.75;;;;;;;12.42;90.56;102158.84;4711042;30;20060;-82
2022/06/28 05:26:43;;;;;;;17.30;4.50;;;;;;;12.53;89.94;102152.53;4739236;30;20036;-81
2022/06/28 05:29:29;;;;;;;9.65;3.83;;;;;;;12.59;88.56;102142.75;4753454;30;20039;-81
2022/06/28 05:31:55;;;;;;;10.50;3.53;;;;;;;12.66;88.78;102138.25;4709803;30;20043;-82
2022/06/28 05:34:21;;;;;;;10.68;3.85;;;;;;;12.73;89.27;102139.06;4753685;30;20527;-82
2022/06/28 05:36:46;;;;;;;9.52;3.70;;;;;;;12.82;88.80;102145.19;4723546;30;20496;-81
2022/06/28 05:39:14;;;;;;;10.52;4.22;;;;;;;12.89;88.52;102141.56;4724493;30;20047;-81
2022/06/28 05:41:41;;;;;;;11.43;3.92;;;;;;;12.95;88.36;102137.94;4724377;30;20044;-81
2022/06/28 05:44:08;;;;;;;10.38;3.70;;;;;;;13.04;87.32;102140.50;4758416;30;20036;-81
2022/06/28 05:46:34;;;;;;;10.20;3.97;;;;;;;13.11;87.28;102136.88;4733152;30;20032;-81
2022/06/28 05:48:59;;;;;;;14.32;4.05;;;;;;;13.18;87.56;102129.72;4753361;30;20352;-82
2022/06/28 05:51:25;;;;;;;10.70;3.85;;;;;;;13.26;87.22;102132.28;4717786;30;20048;-82
2022/06/28 05:53:50;;;;;;;13.60;4.00;;;;;;;13.29;85.33;102125.16;4738904;30;20036;-79
2022/06/28 05:56:16;;;;;;;18.75;5.03;;;;;;;13.39;86.45;102131.25;4735799;30;20048;-80
2022/06/28 05:58:42;;;;;;;9.43;3.40;;;;;;;13.44;85.82;102132.06;4734063;30;20194;-80
2022/06/28 06:01:08;;;;;;;13.32;4.63;;;;;;;13.54;85.50;102136.38;4749099;30;20507;-80
2022/06/28 06:03:33;;;;;;;17.67;4.10;;;;;;;13.60;84.40;102126.53;4753540;30;20534;-80
2022/06/28 06:05:59;;;;;;;10.93;3.90;;;;;;;13.66;85.05;102123.81;4727394;30;20040;-79
2022/06/28 06:08:25;;;;;;;11.35;3.45;;;;;;;13.73;83.93;102129.00;4741058;30;20032;-80
2022/06/28 06:10:51;;;;;;;17.33;4.47;;;;;;;13.79;84.08;102137.81;4741151;30;20058;-80
2022/06/28 06:13:17;;;;;;;14.07;4.40;;;;;;;13.84;83.60;102144.81;4727098;30;20054;-80
2022/06/28 06:15:42;;;;;;;17.63;3.80;;;;;;;13.90;82.43;102142.09;4735354;30;20040;-80
2022/06/28 06:18:08;;;;;;;20.83;3.85;;;;;;;13.97;82.68;102133.09;4756152;30;20093;-81
2022/06/28 06:20:33;;;;;;;16.98;3.83;;;;;;;14.02;82.66;102126.81;4741325;30;20048;-81
2022/06/28 06:22:59;;;;;;;19.85;4.10;;;;;;;14.12;81.13;102142.63;4726943;30;20034;-81
2022/06/28 06:25:46;;;;;;;20.30;4.15;;;;;;;14.19;81.05;102143.41;4743607;30;20105;-80
2022/06/28 06:28:12;;;;;;;13.82;3.50;;;;;;;14.23;80.75;102138.91;4741011;30;20488;-82
2022/06/28 06:30:39;;;;;;;17.27;4.00;;;;;;;14.29;80.66;102133.47;4723280;30;20504;-81
2022/06/28 06:33:12;;;;;;;17.13;3.83;;;;;;;14.36;81.07;102141.31;4722883;30;20036;-81
2022/06/28 06:35:56;;;;;;;16.98;3.70;;;;;;;14.49;80.65;102144.69;4733516;30;20487;-82
2022/06/28 06:38:21;;;;;;;13.63;3.17;;;;;;;14.56;78.35;102149.03;4740884;30;20044;-81
2022/06/28 06:40:48;;;;;;;15.00;3.53;;;;;;;14.58;77.97;102149.00;4741312;30;20584;-81
2022/06/28 06:43:15;;;;;;;15.27;4.10;;;;;;;14.66;78.66;102140.84;4726739;30;20048;-81
2022/06/28 06:45:41;;;;;;;12.15;3.22;;;;;;;14.75;77.61;102144.25;4755564;30;20054;-82
2022/06/28 06:48:07;;;;;;;12.10;3.80;;;;;;;14.81;77.53;102145.91;4740541;30;20109;-82
2022/06/28 06:50:33;;;;;;;11.77;3.33;;;;;;;14.90;78.01;102151.06;4712218;30;20027;-81
2022/06/28 06:52:58;;;;;;;10.82;3.60;;;;;;;14.95;76.57;102157.19;4740733;30;20449;-82
2022/06/28 06:55:25;;;;;;;15.23;3.78;;;;;;;14.99;74.04;102150.91;4740383;30;20036;-82
2022/06/28 06:57:51;;;;;;;12.20;3.25;;;;;;;15.10;73.70;102163.16;4727921;30;20130;-82
2022/06/28 07:00:17;;;;;;;16.98;3.50;;;;;;;15.16;74.37;102157.72;4756208;30;20138;-82
2022/06/28 07:02:43;;;;;;;11.32;3.25;;;;;;;15.22;72.36;102160.25;4722843;30;20046;-82
2022/06/28 07:05:10;;;;;;;17.10;3.08;;;;;;;15.23;73.31;102146.88;4738700;30;20366;-83
2022/06/28 07:07:35;;;;;;;15.75;3.22;;;;;;;15.36;71.89;102159.97;4740488;30;20046;-83
2022/06/28 07:10:03;;;;;;;12.93;3.15;;;;;;;15.39;71.78;102159.91;4730232;30;20126;-82
2022/06/28 07:12:29;;;;;;;10.27;2.75;;;;;;;15.48;73.20;102163.25;4729316;30;20063;-82
2022/06/28 07:14:55;;;;;;;14.68;3.40;;;;;;;15.53;70.15;102159.59;4711822;30;20106;-82
2022/06/28 07:17:25;;;;;;;12.25;2.70;;;;;;;15.66;70.12;102171.78;4712512;30;20047;-82
2022/06/28 07:19:51;;;;;;;12.10;2.85;;;;;;;15.75;68.87;102168.94;4739599;30;20043;-82
2022/06/28 07:22:16;;;;;;;11.85;2.60;;;;;;;15.83;70.40;102160.75;4754540;30;20038;-82
2022/06/28 07:24:43;;;;;;;7.97;2.75;;;;;;;15.95;69.41;102165.81;4739681;30;20048;-82
2022/06/28 07:27:10;;;;;;;16.45;2.90;;;;;;;15.99;68.57;102159.47;4739809;30;20048;-82
2022/06/28 07:29:36;;;;;;;7.65;2.55;;;;;;;16.03;68.42;102158.50;4754623;30;20040;-84
2022/06/28 07:32:01;;;;;;;14.65;2.85;;;;;;;16.18;68.16;102165.28;4724902;30;20089;-82
2022/06/28 07:34:27;;;;;;;13.13;2.55;;;;;;;16.21;67.97;102153.63;4755039;30;20096;-83
2022/06/28 07:36:53;;;;;;;13.13;3.25;;;;;;;16.33;65.39;102174.72;4754158;30;20434;-84
2022/06/28 07:39:20;;;;;;;14.63;2.72;;;;;;;16.38;67.32;102167.44;4720690;30;20048;-84
2022/06/28 07:42:04;;;;;;;10.85;2.58;;;;;;;16.45;66.93;102168.19;4744175;30;20066;-84
2022/06/28 07:44:56;;;;;;;11.32;2.60;;;;;;;16.47;64.04;102161.88;4754170;30;20043;-84
2022/06/28 07:47:22;;;;;;;10.88;2.50;;;;;;;16.65;65.73;102167.66;4739532;30;20093;-84
2022/06/28 07:52:36;;;;;;;13.25;3.22;;;;;;;16.78;64.61;102161.09;4756447;30;20131;-84
2022/06/28 07:55:07;;;;;;;8.18;2.50;;;;;;;16.85;64.29;102154.66;4740016;30;20036;-84
2022/06/28 07:57:40;;;;;;;10.50;2.40;;;;;;;16.99;63.68;102162.34;4753852;30;20399;-83
2022/06/28 08:00:09;;;;;;;11.13;2.42;;;;;;;17.11;65.45;102158.41;4754021;30;20055;-83
2022/06/28 08:02:37;;;;;;;9.80;2.88;;;;;;;17.28;64.24;102148.09;4738855;30;20055;-84
2022/06/28 08:05:04;;;;;;;7.88;2.22;;;;;;;17.45;64.12;102146.72;4739234;30;20378;-86
2022/06/28 08:07:30;;;;;;;17.23;2.97;;;;;;;17.53;62.35;102140.25;4753819;30;20034;-84
2022/06/28 08:09:55;;;;;;;8.80;2.42;;;;;;;17.66;61.85;102140.75;4739304;30;20046;-85
2022/06/28 08:12:21;;;;;;;12.57;1.90;;;;;;;17.76;59.18;102144.88;4737510;30;20032;-85
2022/06/28 08:14:47;;;;;;;8.13;1.92;;;;;;;17.87;58.76;102139.22;4739183;30;20039;-85
2022/06/28 08:17:13;;;;;;;9.63;2.50;;;;;;;17.99;58.83;102151.34;4724711;30;20147;-84
2022/06/28 08:19:39;;;;;;;9.52;1.90;;;;;;;17.99;57.08;102152.22;4753439;30;20071;-85
2022/06/28 08:22:04;;;;;;;7.28;1.98;;;;;;;18.09;58.86;102149.25;4724824;30;20532;-85
2022/06/28 08:24:30;;;;;;;8.07;2.17;;;;;;;18.24;57.29;102141.56;4739089;30;20047;-85
2022/06/28 08:26:55;;;;;;;12.80;2.75;;;;;;;18.27;57.20;102137.91;4738490;30;20214;-85
2022/06/28 08:29:21;;;;;;;10.20;2.22;;;;;;;18.36;60.19;102142.97;4724427;30;20071;-85
2022/06/28 08:31:48;;;;;;;8.15;2.20;;;;;;;18.48;56.69;102136.31;4724522;30;20024;-86
2022/06/28 08:34:13;;;;;;;5.20;2.00;;;;;;;18.67;57.42;102131.19;4738827;30;20119;-85
2022/06/28 08:36:39;;;;;;;13.00;2.08;;;;;;;18.72;56.60;102126.53;4738564;30;20039;-87
2022/06/28 08:39:05;;;;;;;11.18;2.20;;;;;;;18.88;55.76;102125.06;4753288;30;20071;-86
2022/06/28 08:41:33;;;;;;;8.77;2.28;;;;;;;18.97;53.81;102123.00;4738666;30;20108;-86
2022/06/28 08:43:59;;;;;;;8.07;1.85;;;;;;;19.02;53.07;102115.66;4757233;30;20651;-87
2022/06/28 08:46:25;;;;;;;7.70;1.80;;;;;;;18.98;53.39;102114.00;4753372;30;20063;-86
2022/06/28 08:49:01;;;;;;;9.32;2.35;;;;;;;19.01;53.66;102117.44;4723973;30;20070;-87
2022/06/28 08:51:30;;;;;;;7.75;1.98;;;;;;;19.15;54.17;102111.56;4753020;30;20464;-86
2022/06/28 08:53:59;;;;;;;10.43;2.35;;;;;;;19.28;52.53;102102.09;4721227;30;20481;-86
2022/06/28 08:56:25;;;;;;;10.30;1.73;;;;;;;19.42;52.64;102109.66;4744570;30;20039;-87
2022/06/28 08:58:51;;;;;;;7.45;2.15;;;;;;;19.47;51.08;102118.41;4752879;30;20043;-86
2022/06/28 09:01:17;;;;;;;6.15;1.92;;;;;;;19.52;50.79;102120.91;4751544;30;20122;-87
2022/06/28 09:03:43;;;;;;;9.93;2.40;;;;;;;19.51;51.95;102109.28;4738171;30;20126;-86
2022/06/28 09:06:09;;;;;;;6.70;1.70;;;;;;;19.63;50.91;102115.09;4753183;30;20063;-87
2022/06/28 09:08:35;;;;;;;6.60;1.92;;;;;;;19.79;51.08;102110.91;4738797;30;20365;-86
2022/06/28 09:11:01;;;;;;;8.20;2.30;;;;;;;19.72;50.72;102101.34;4739448;30;20055;-87
2022/06/28 09:13:26;;;;;;;6.45;1.75;;;;;;;19.93;51.79;102115.72;4757307;30;20040;-88
2022/06/28 09:16:05;;;;;;;6.45;1.75;;;;;;;19.89;50.12;102095.28;4755982;30;20035;-86
2022/06/28 09:18:36;;;;;;;6.95;1.70;;;;;;;20.02;50.59;102109.09;4739649;30;20035;-86
2022/06/28 09:21:06;;;;;;;8.95;1.80;;;;;;;20.05;49.99;102098.19;4739003;30;20392;-86
2022/06/28 09:23:34;;;;;;;9.37;2.23;;;;;;;20.22;50.14;102100.19;4738920;30;20050;-87
2022/06/28 09:26:06;;;;;;;5.20;1.40;;;;;;;20.37;48.78;102099.53;4738557;30;20647;-87
2022/06/28 09:28:35;;;;;;;4.75;1.15;;;;;;;20.31;46.81;102087.22;4738464;30;20123;-87
2022/06/28 09:31:24;;;;;;;3.95;1.25;;;;;;;20.50;48.81;102100.78;4753280;30;20027;-86
2022/06/28 09:34:08;;;;;;;4.47;1.23;;;;;;;20.57;48.87;102094.22;4727111;30;20043;-87
2022/06/28 09:36:41;;;;;;;7.20;1.73;;;;;;;20.79;49.10;102094.09;4767948;30;20079;-86
2022/06/28 09:39:17;;;;;;;6.90;1.63;;;;;;;20.91;48.32;102086.44;4741433;30;20126;-87
2022/06/28 09:41:51;;;;;;;5.63;1.52;;;;;;;20.93;48.14;102071.94;4756732;30;20036;-87
2022/06/28 09:44:17;;;;;;;7.00;1.70;;;;;;;21.14;46.81;102080.88;4756785;30;20101;-86
2022/06/28 09:46:44;;;;;;;5.15;1.60;;;;;;;21.47;48.19;102086.50;4756573;30;20484;-86
2022/06/28 09:49:10;;;;;;;9.32;1.58;;;;;;;21.57;46.65;102081.56;4741557;30;20081;-86
2022/06/28 09:51:37;;;;;;;4.75;1.42;;;;;;;21.38;44.23;102075.25;4742206;30;20043;-86
2022/06/28 09:54:08;;;;;;;6.63;1.55;;;;;;;21.35;44.99;102068.19;4757519;30;20553;-86
2022/06/28 09:56:47;;;;;;;4.18;1.23;;;;;;;21.42;44.63;102072.38;4757282;30;20110;-85
2022/06/28 09:59:13;;;;;;;4.82;1.40;;;;;;;21.32;43.78;102065.66;4742847;30;20135;-85
2022/06/28 10:01:39;;;;;;;5.53;1.17;;;;;;;21.23;45.75;102055.31;4742490;30;20182;-86
2022/06/28 10:04:05;;;;;;;5.97;1.70;;;;;;;21.33;44.14;102058.44;4757407;30;20036;-85
2022/06/28 10:06:31;;;;;;;6.63;1.45;;;;;;;21.43;44.98;102055.25;4742401;30;20077;-87
2022/06/28 10:08:58;;;;;;;3.03;1.40;;;;;;;21.56;45.41;102060.06;4742488;30;20127;-86
2022/06/28 10:11:24;;;;;;;7.50;1.50;;;;;;;21.80;45.86;102057.97;4757262;30;20027;-86
2022/06/28 10:16:57;;;;;;;3.97;1.40;;;;;;;22.09;45.58;102056.53;4757078;30;20054;-86
2022/06/28 10:19:26;;;;;;;6.93;1.35;;;;;;;22.30;47.15;102054.56;4756985;30;20059;-85
2022/06/28 10:21:51;;;;;;;4.85;1.30;;;;;;;22.45;44.52;102051.09;4741575;30;20046;-86
2022/06/28 10:24:18;;;;;;;3.33;1.50;;;;;;;22.47;43.79;102046.44;4755998;30;20158;-86
2022/06/28 10:26:45;;;;;;;4.80;1.50;;;;;;;22.44;42.81;102043.91;4741044;30;20449;-86
2022/06/28 10:29:11;;;;;;;4.00;1.27;;;;;;;22.53;44.16;102039.88;4741618;30;20044;-85
2022/06/28 10:31:42;;;;;;;6.10;1.70;;;;;;;22.68;44.80;102043.59;4741180;30;20142;-86
2022/06/28 10:34:12;;;;;;;6.70;1.45;;;;;;;22.78;43.66;102036.72;4772039;30;20075;-86
2022/06/28 10:36:48;;;;;;;6.47;1.75;;;;;;;22.87;46.88;102038.03;4740592;30;20043;-86
2022/06/28 10:39:25;;;;;;;4.93;1.88;;;;;;;22.99;47.63;102036.53;4755552;30;20040;-88
2022/06/28 10:41:54;;;;;;;8.00;1.85;;;;;;;23.13;42.61;102026.69;4755303;30;20046;-89
2022/06/28 10:44:21;;;;;;;6.80;1.70;;;;;;;23.10;43.41;102028.72;4755728;30;20119;-82
2022/06/28 10:47:05;;;;;;;6.28;1.50;;;;;;;22.93;42.92;102024.22;4755377;30;20044;-85
2022/06/28 10:49:45;;;;;;;5.82;1.38;;;;;;;23.02;46.35;102023.75;4754357;30;20039;-82
2022/06/28 10:52:14;;;;;;;6.15;1.27;;;;;;;23.02;44.50;102026.44;4741806;30;20101;-89
2022/06/28 10:55:05;;;;;;;5.68;1.85;;;;;;;22.91;40.96;102024.28;4741916;30;20036;-88
2022/06/28 10:57:30;;;;;;;6.03;1.88;;;;;;;23.02;44.13;102018.34;4731184;30;20119;-88
2022/06/28 10:59:58;;;;;;;8.43;1.52;;;;;;;23.21;45.93;102006.47;4755558;30;20056;-88
2022/06/28 11:02:45;;;;;;;3.60;1.60;;;;;;;23.28;45.17;102006.03;4754277;30;20292;-85
2022/06/28 11:05:11;;;;;;;4.20;1.20;;;;;;;23.22;42.35;102001.00;4755449;30;20093;-86
2022/06/28 11:07:39;;;;;;;5.32;1.42;;;;;;;23.33;43.46;102013.91;4755299;30;20057;-87
2022/06/28 11:10:16;;;;;;;5.05;1.70;;;;;;;23.20;42.27;101994.81;4740433;30;20411;-88
2022/06/28 11:12:51;;;;;;;7.35;1.67;;;;;;;23.39;44.46;102000.91;4739872;30;20047;-88
2022/06/28 11:15:29;;;;;;;6.55;1.50;;;;;;;23.61;44.07;101995.13;4756274;30;20043;-89
2022/06/28 11:17:55;;;;;;;5.72;1.52;;;;;;;23.77;42.14;101975.31;4756016;30;20039;-89
2022/06/28 11:20:24;;;;;;;8.82;1.63;;;;;;;23.90;42.99;101986.28;4755055;30;20142;-84
2022/06/28 11:22:51;;;;;;;7.45;1.50;;;;;;;23.79;43.28;101976.09;4770204;30;20054;-86
2022/06/28 11:25:17;;;;;;;7.15;2.03;;;;;;;23.87;44.68;101986.47;4739496;30;20032;-85
2022/06/28 11:27:52;;;;;;;17.17;2.72;;;;;;;24.05;42.38;101985.34;4755658;30;20092;-86
2022/06/28 11:30:19;;;;;;;5.82;1.63;;;;;;;23.92;39.56;101977.09;4755227;30;20166;-86
2022/06/28 11:32:48;;;;;;;5.05;1.50;;;;;;;23.93;39.36;101976.13;4725031;30;20054;-87
2022/06/28 11:35:16;;;;;;;10.45;1.80;;;;;;;23.97;39.59;101971.41;4753756;30;20032;-85
2022/06/28 11:37:47;;;;;;;4.78;1.52;;;;;;;24.25;43.24;101966.03;4769999;30;20122;-83
2022/06/28 11:40:13;;;;;;;;;;;;;;;24.41;39.96;101971.41;4754638;30;20115;-84
2022/06/28 11:42:39;;;;;;;9.48;3.05;;;;;;;24.18;42.04;101956.59;4754832;30;19968;-84
2022/06/28 11:45:06;;;;;;;4.22;1.48;;;;;;;24.37;41.47;101960.84;4754618;30;20044;-84